Time;durP1;ratioP1;P1;durP2;ratioP2;P2;SDS_P1;SDS_P2;PMS_P1;PMS_P2;Temp;Humidity;BMP_temperature;BMP_pressure;BME280_temperature;BME280_humidity;BME280_pressure;Samples;Min_cycle;Max_cycle;Signal;HPM_P1;HPM_P2
2023/03/10 00:01:51;;;;;;;29.93;11.90;;;;;;;2.61;100.00;98943.56;5094355;28;20963;-69
2023/03/10 00:04:18;;;;;;;26.30;11.00;;;;;;;2.65;100.00;98942.69;5094674;28;20572;-69
2023/03/10 00:06:44;;;;;;;27.30;11.60;;;;;;;2.68;100.00;98936.78;5094671;28;20447;-69
2023/03/10 00:09:12;;;;;;;32.30;12.27;;;;;;;2.68;100.00;98934.09;5094267;28;20445;-69
2023/03/10 00:11:39;;;;;;;28.30;11.67;;;;;;;2.70;100.00;98937.31;5094143;28;20444;-69
2023/03/10 00:14:05;;;;;;;27.60;11.50;;;;;;;2.67;100.00;98935.19;5093985;28;20896;-69
2023/03/10 00:16:34;;;;;;;32.27;10.97;;;;;;;2.74;100.00;98929.47;5094128;28;20548;-69
2023/03/10 00:19:00;;;;;;;25.70;11.10;;;;;;;2.70;100.00;98929.28;5094430;28;20444;-68
2023/03/10 00:21:29;;;;;;;26.27;11.30;;;;;;;2.72;100.00;98924.44;5094400;28;20535;-69
2023/03/10 00:23:56;;;;;;;26.20;11.13;;;;;;;2.66;100.00;98922.94;5094520;28;20452;-70
2023/03/10 00:26:24;;;;;;;36.80;13.27;;;;;;;2.65;100.00;98907.94;5094339;28;20626;-70
2023/03/10 00:28:51;;;;;;;25.90;11.20;;;;;;;2.70;100.00;98913.25;5094278;28;20491;-69
2023/03/10 00:31:21;;;;;;;21.63;10.13;;;;;;;2.65;100.00;98912.50;5094254;28;20435;-69
2023/03/10 00:33:50;;;;;;;32.20;11.27;;;;;;;2.61;100.00;98911.50;5094227;28;20527;-70
2023/03/10 00:36:19;;;;;;;32.00;11.80;;;;;;;2.61;100.00;98906.97;5094185;28;20476;-70
2023/03/10 00:38:46;;;;;;;25.00;10.30;;;;;;;2.65;100.00;98899.94;5094031;28;20544;-70
2023/03/10 00:41:15;;;;;;;30.10;10.50;;;;;;;2.65;100.00;98893.78;5094207;28;20433;-69
2023/03/10 00:43:42;;;;;;;33.27;14.37;;;;;;;2.70;100.00;98889.19;5093961;28;20838;-70
2023/03/10 00:46:09;;;;;;;28.70;11.10;;;;;;;2.62;100.00;98884.50;5093809;28;20519;-70
2023/03/10 00:48:36;;;;;;;35.03;11.37;;;;;;;2.54;100.00;98882.47;5093501;28;20933;-70
2023/03/10 00:51:05;;;;;;;28.57;11.40;;;;;;;2.56;100.00;98869.59;5093898;28;20440;-70
2023/03/10 00:53:33;;;;;;;31.23;10.47;;;;;;;2.57;100.00;98857.84;5093700;28;20535;-70
2023/03/10 00:56:01;;;;;;;25.00;10.67;;;;;;;2.51;100.00;98851.78;5093233;28;20479;-70
2023/03/10 00:58:29;;;;;;;30.33;10.90;;;;;;;2.48;100.00;98840.88;5093756;28;20527;-69
2023/03/10 01:00:56;;;;;;;28.70;10.80;;;;;;;2.53;100.00;98838.13;5093842;28;20468;-70
2023/03/10 01:03:24;;;;;;;34.17;11.33;;;;;;;2.53;100.00;98822.09;5093599;28;20538;-70
2023/03/10 01:05:51;;;;;;;23.57;10.40;;;;;;;2.48;100.00;98814.97;5093490;28;20457;-69
2023/03/10 01:08:20;;;;;;;23.70;9.37;;;;;;;2.46;100.00;98810.97;5093627;28;20524;-70
2023/03/10 01:10:46;;;;;;;24.37;10.03;;;;;;;2.46;100.00;98809.09;5093255;28;20433;-70
2023/03/10 01:13:15;;;;;;;25.90;10.17;;;;;;;2.46;100.00;98802.97;5093515;28;20528;-70
2023/03/10 01:15:43;;;;;;;22.53;9.90;;;;;;;2.50;100.00;98803.97;5093435;28;20465;-70
2023/03/10 01:18:10;;;;;;;26.07;10.10;;;;;;;2.59;100.00;98794.19;5093332;28;20491;-70
2023/03/10 01:20:37;;;;;;;24.57;9.77;;;;;;;2.64;100.00;98796.00;5093631;28;20428;-70
2023/03/10 01:23:03;;;;;;;20.53;8.37;;;;;;;2.65;100.00;98787.66;5093392;28;20436;-70
2023/03/10 01:25:31;;;;;;;23.97;9.77;;;;;;;2.67;100.00;98784.72;5092622;28;20460;-70
2023/03/10 01:27:58;;;;;;;20.57;8.33;;;;;;;2.66;100.00;98783.94;5093039;28;20436;-70
2023/03/10 01:30:24;;;;;;;21.60;8.37;;;;;;;2.67;100.00;98771.38;5093280;28;20442;-70
2023/03/10 01:32:51;;;;;;;19.30;8.93;;;;;;;2.65;100.00;98770.84;5093290;28;20436;-69
2023/03/10 01:35:18;;;;;;;21.10;9.03;;;;;;;2.64;100.00;98759.38;5092870;28;20500;-69
2023/03/10 01:37:45;;;;;;;29.57;10.07;;;;;;;2.55;100.00;98750.44;5092871;28;20486;-70
2023/03/10 01:40:15;;;;;;;20.10;7.83;;;;;;;2.60;100.00;98746.88;5093199;28;21003;-69
2023/03/10 01:42:43;;;;;;;19.27;7.93;;;;;;;2.61;100.00;98749.28;5093190;28;20445;-69
2023/03/10 01:45:31;;;;;;;19.03;8.63;;;;;;;2.64;100.00;98743.31;5093385;28;20464;-69
2023/03/10 01:47:57;;;;;;;21.37;9.00;;;;;;;2.61;100.00;98733.25;5092607;28;20868;-69
2023/03/10 01:50:24;;;;;;;29.50;8.43;;;;;;;2.63;100.00;98724.94;5093071;28;20531;-70
2023/03/10 01:52:57;;;;;;;17.80;8.80;;;;;;;2.60;100.00;98714.81;5093037;28;20487;-69
2023/03/10 01:55:27;;;;;;;21.10;7.07;;;;;;;2.61;100.00;98717.22;5092905;28;20483;-69
2023/03/10 01:57:56;;;;;;;22.47;9.07;;;;;;;2.55;100.00;98707.69;5092945;28;20483;-69
2023/03/10 02:00:25;;;;;;;20.93;8.80;;;;;;;2.56;100.00;98703.13;5092733;28;20490;-69
2023/03/10 02:02:56;;;;;;;19.87;8.00;;;;;;;2.55;100.00;98698.88;5092990;28;20453;-70
2023/03/10 02:05:24;;;;;;;21.60;8.83;;;;;;;2.55;100.00;98696.19;5092973;28;20509;-70
2023/03/10 02:07:51;;;;;;;21.27;7.87;;;;;;;2.53;100.00;98683.94;5092864;28;20432;-70
2023/03/10 02:10:18;;;;;;;18.27;7.13;;;;;;;2.49;100.00;98688.28;5092942;28;20443;-70
2023/03/10 02:12:45;;;;;;;19.57;7.53;;;;;;;2.49;100.00;98676.81;5092917;28;20476;-70
2023/03/10 02:15:13;;;;;;;22.70;8.10;;;;;;;2.46;100.00;98667.50;5092782;28;20464;-70
2023/03/10 02:17:40;;;;;;;20.40;7.07;;;;;;;2.46;100.00;98664.03;5092393;28;20992;-70
2023/03/10 02:20:24;;;;;;;18.83;6.83;;;;;;;2.49;100.00;98650.88;5092801;28;20483;-68
2023/03/10 02:22:51;;;;;;;23.40;8.37;;;;;;;2.55;100.00;98642.75;5093028;28;20431;-69
2023/03/10 02:25:29;;;;;;;15.80;6.73;;;;;;;2.56;100.00;98629.09;5092235;28;20466;-69
2023/03/10 02:27:58;;;;;;;18.63;7.30;;;;;;;2.62;100.00;98627.13;5092838;28;20516;-69
2023/03/10 02:30:27;;;;;;;21.33;7.60;;;;;;;2.59;100.00;98615.16;5092799;28;20531;-69
2023/03/10 02:32:58;;;;;;;20.17;8.30;;;;;;;2.60;100.00;98608.72;5092387;28;20937;-69
2023/03/10 02:35:24;;;;;;;18.30;7.40;;;;;;;2.59;100.00;98603.66;5093616;28;20546;-69
2023/03/10 02:37:51;;;;;;;17.93;6.83;;;;;;;2.63;100.00;98602.78;5096260;28;20480;-70
2023/03/10 02:40:30;;;;;;;17.57;7.17;;;;;;;2.65;100.00;98592.56;5096087;28;20957;-69
2023/03/10 02:43:00;;;;;;;20.10;7.50;;;;;;;2.65;100.00;98589.91;5095995;28;20431;-69
2023/03/10 02:45:30;;;;;;;20.70;7.03;;;;;;;2.63;100.00;98589.41;5096384;28;20456;-69
2023/03/10 02:47:56;;;;;;;19.93;8.67;;;;;;;2.61;100.00;98580.09;5096192;28;20512;-69
2023/03/10 02:50:26;;;;;;;17.20;7.23;;;;;;;2.58;100.00;98573.50;5096204;28;20809;-69
2023/03/10 02:53:00;;;;;;;19.93;8.60;;;;;;;2.59;100.00;98575.06;5096358;28;20440;-69
2023/03/10 02:55:26;;;;;;;19.00;7.93;;;;;;;2.61;100.00;98567.56;5095875;28;20468;-69
2023/03/10 02:57:53;;;;;;;24.27;9.30;;;;;;;2.59;100.00;98559.03;5095878;28;20487;-70
2023/03/10 03:00:21;;;;;;;16.53;6.90;;;;;;;2.60;100.00;98555.25;5095944;28;20453;-70
2023/03/10 03:02:48;;;;;;;17.23;8.40;;;;;;;2.51;100.00;98552.50;5095649;28;20535;-69
2023/03/10 03:05:14;;;;;;;27.80;8.50;;;;;;;2.48;100.00;98553.09;5095782;28;20543;-69
2023/03/10 03:07:41;;;;;;;22.80;9.23;;;;;;;2.46;100.00;98543.78;5095748;28;20996;-69
2023/03/10 03:10:09;;;;;;;25.00;8.07;;;;;;;2.48;100.00;98536.28;5095903;28;20535;-69
2023/03/10 03:12:35;;;;;;;17.87;6.53;;;;;;;2.48;100.00;98536.28;5095774;28;20527;-69
2023/03/10 03:15:02;;;;;;;21.57;7.60;;;;;;;2.46;100.00;98533.91;5095683;28;20834;-69
2023/03/10 03:17:30;;;;;;;21.43;8.03;;;;;;;2.44;100.00;98520.06;5095644;28;20567;-70
2023/03/10 03:19:56;;;;;;;22.80;7.33;;;;;;;2.47;100.00;98522.13;5095327;28;20441;-69
2023/03/10 03:22:23;;;;;;;20.60;7.60;;;;;;;2.50;100.00;98510.06;5095243;28;20448;-70
2023/03/10 03:24:49;;;;;;;18.73;7.50;;;;;;;2.46;100.00;98506.41;5095109;28;20562;-69
2023/03/10 03:27:16;;;;;;;14.57;5.47;;;;;;;2.37;100.00;98500.97;5095496;28;20472;-69
2023/03/10 03:29:43;;;;;;;13.37;5.60;;;;;;;2.44;100.00;98504.03;5095467;28;20446;-70
2023/03/10 03:32:09;;;;;;;16.43;6.43;;;;;;;2.44;100.00;98497.91;5095105;28;20445;-69
2023/03/10 03:34:37;;;;;;;16.87;5.57;;;;;;;2.41;100.00;98491.25;5095308;28;20543;-70
2023/03/10 03:37:04;;;;;;;14.53;6.50;;;;;;;2.31;100.00;98490.69;5095035;28;20448;-69
2023/03/10 03:39:30;;;;;;;13.60;6.77;;;;;;;2.30;100.00;98491.75;5095433;28;20647;-69
2023/03/10 03:41:57;;;;;;;20.30;6.70;;;;;;;2.42;100.00;98484.03;5095308;28;20876;-69
2023/03/10 03:44:23;;;;;;;18.07;6.07;;;;;;;2.41;100.00;98471.78;5095063;28;20836;-69
2023/03/10 03:46:50;;;;;;;15.30;6.70;;;;;;;2.34;100.00;98472.16;5094492;28;20453;-69
2023/03/10 03:49:17;;;;;;;14.77;6.17;;;;;;;2.38;100.00;98475.03;5095057;28;20479;-69
2023/03/10 03:51:45;;;;;;;14.97;6.10;;;;;;;2.32;100.00;98463.66;5095023;28;20885;-69
2023/03/10 03:54:11;;;;;;;15.20;5.47;;;;;;;2.25;100.00;98456.03;5094811;28;20575;-69
2023/03/10 03:56:38;;;;;;;14.77;5.33;;;;;;;2.31;100.00;98447.94;5094990;28;20421;-69
2023/03/10 03:59:05;;;;;;;12.63;5.03;;;;;;;2.35;100.00;98451.59;5110974;22;20489;-79
2023/03/10 04:01:32;;;;;;;11.13;5.30;;;;;;;2.39;100.00;98436.53;5078436;28;20476;-79
2023/03/10 04:03:58;;;;;;;11.30;4.67;;;;;;;2.42;100.00;98427.94;5075295;28;20616;-79
2023/03/10 04:06:25;;;;;;;13.50;4.80;;;;;;;2.38;100.00;98414.38;5076221;28;20877;-80
2023/03/10 04:08:53;;;;;;;15.80;5.27;;;;;;;2.37;100.00;98422.69;5075117;28;20472;-79
2023/03/10 04:11:20;;;;;;;13.43;5.27;;;;;;;2.36;100.00;98416.56;5075065;28;21037;-79
2023/03/10 04:13:46;;;;;;;15.60;5.33;;;;;;;2.43;100.00;98405.47;5075300;28;20469;-80
2023/03/10 04:16:13;;;;;;;11.90;5.23;;;;;;;2.43;100.00;98402.78;5075293;28;20956;-79
2023/03/10 04:18:40;;;;;;;11.97;5.30;;;;;;;2.38;100.00;98394.88;5075338;28;20899;-79
2023/03/10 04:21:06;;;;;;;12.43;5.47;;;;;;;2.45;100.00;98406.75;5075187;28;20792;-79
2023/03/10 04:23:33;;;;;;;12.50;5.50;;;;;;;2.53;100.00;98406.03;5074998;28;20900;-79
2023/03/10 04:26:01;;;;;;;14.63;5.57;;;;;;;2.51;100.00;98405.53;5075208;28;21067;-79
2023/03/10 04:28:28;;;;;;;16.67;4.77;;;;;;;2.50;100.00;98411.19;5075359;28;20618;-79
2023/03/10 04:30:54;;;;;;;13.70;5.63;;;;;;;2.56;100.00;98401.97;5074900;28;20462;-79
2023/03/10 04:33:21;;;;;;;14.93;5.60;;;;;;;2.54;100.00;98409.50;5074423;28;20814;-79
2023/03/10 04:35:50;;;;;;;16.87;5.70;;;;;;;2.53;100.00;98405.25;5075350;28;20581;-78
2023/03/10 04:38:16;;;;;;;15.43;5.07;;;;;;;2.58;100.00;98413.16;5075367;28;20500;-78
2023/03/10 04:40:43;;;;;;;13.80;5.17;;;;;;;2.62;100.00;98402.66;5074624;28;20547;-79
2023/03/10 04:43:11;;;;;;;10.37;4.60;;;;;;;2.56;100.00;98391.28;5074580;28;20453;-79
2023/03/10 04:45:38;;;;;;;12.60;4.73;;;;;;;2.61;100.00;98385.03;5074666;28;20541;-80
2023/03/10 04:48:05;;;;;;;11.47;4.83;;;;;;;2.62;100.00;98387.41;5074588;28;20559;-79
2023/03/10 04:50:31;;;;;;;15.83;6.30;;;;;;;2.55;100.00;98380.91;5074508;28;20546;-79
2023/03/10 04:52:58;;;;;;;18.13;5.43;;;;;;;2.54;100.00;98377.44;5074597;28;20984;-79
2023/03/10 04:55:24;;;;;;;13.03;5.60;;;;;;;2.54;100.00;98364.06;5074163;28;20511;-79
2023/03/10 04:57:51;;;;;;;15.17;5.77;;;;;;;2.57;100.00;98363.47;5074152;28;21052;-79
2023/03/10 05:00:20;;;;;;;11.10;5.03;;;;;;;2.57;100.00;98355.47;5073713;28;20909;-79
2023/03/10 05:02:46;;;;;;;14.87;6.40;;;;;;;2.62;100.00;98355.34;5074351;28;20451;-79
2023/03/10 05:05:13;;;;;;;16.00;4.97;;;;;;;2.66;100.00;98355.53;5073999;28;20954;-79
2023/03/10 05:07:39;;;;;;;12.30;4.80;;;;;;;2.70;100.00;98348.44;5074864;28;20540;-80
2023/03/10 05:10:07;;;;;;;12.43;4.73;;;;;;;2.71;100.00;98342.81;5074682;28;21000;-80
2023/03/10 05:12:34;;;;;;;13.70;4.90;;;;;;;2.72;100.00;98339.06;5074544;28;20528;-81
2023/03/10 05:15:00;;;;;;;12.10;4.90;;;;;;;2.74;100.00;98331.50;5075395;28;20480;-80
2023/03/10 05:17:29;;;;;;;13.07;5.47;;;;;;;2.76;100.00;98318.63;5075058;28;20846;-80
2023/03/10 05:19:56;;;;;;;11.13;4.60;;;;;;;2.78;100.00;98337.81;5074559;28;20480;-81
2023/03/10 05:22:22;;;;;;;15.33;5.07;;;;;;;2.64;100.00;98318.41;5075384;28;20500;-81
2023/03/10 05:24:49;;;;;;;15.00;5.47;;;;;;;2.68;100.00;98299.88;5075911;28;20537;-81
2023/03/10 05:27:18;;;;;;;15.07;5.87;;;;;;;2.68;100.00;98310.56;5076270;28;20532;-81
2023/03/10 05:29:45;;;;;;;12.17;4.90;;;;;;;2.68;100.00;98321.25;5074726;28;20475;-80
2023/03/10 05:32:11;;;;;;;11.13;5.57;;;;;;;2.78;100.00;98310.31;5075017;28;20450;-79
2023/03/10 05:34:40;;;;;;;16.07;5.23;;;;;;;2.72;100.00;98312.31;5075269;28;20469;-81
2023/03/10 05:37:06;;;;;;;10.60;5.07;;;;;;;2.70;100.00;98303.84;5076550;28;20476;-80
2023/03/10 05:39:33;;;;;;;13.80;5.10;;;;;;;2.66;100.00;98318.91;5077890;28;20512;-81
2023/03/10 05:42:00;;;;;;;10.20;4.83;;;;;;;2.70;100.00;98317.19;5075516;28;20445;-80
2023/03/10 05:44:27;;;;;;;18.50;6.00;;;;;;;2.70;100.00;98298.50;5074275;28;20437;-80
2023/03/10 05:46:53;;;;;;;9.63;4.47;;;;;;;2.69;100.00;98290.75;5074004;28;20540;-79
2023/03/10 05:49:20;;;;;;;14.43;5.53;;;;;;;2.64;100.00;98293.56;5073835;28;20441;-81
2023/03/10 05:51:48;;;;;;;12.23;4.13;;;;;;;2.64;100.00;98291.66;5074072;28;20561;-80
2023/03/10 05:54:15;;;;;;;11.43;4.73;;;;;;;2.65;100.00;98300.47;5074238;28;20493;-80
2023/03/10 05:56:42;;;;;;;12.27;5.03;;;;;;;2.60;100.00;98290.69;5073762;28;20433;-80
2023/03/10 05:59:08;;;;;;;13.70;5.70;;;;;;;2.68;100.00;98284.63;5073798;28;20516;-80
2023/03/10 06:01:36;;;;;;;16.57;5.47;;;;;;;2.64;100.00;98286.31;5074325;28;20907;-79
2023/03/10 06:04:02;;;;;;;13.17;5.43;;;;;;;2.72;100.00;98290.94;5074066;28;20814;-80
2023/03/10 06:06:29;;;;;;;12.53;4.73;;;;;;;2.72;100.00;98287.47;5074262;28;20503;-79
2023/03/10 06:08:57;;;;;;;10.33;5.00;;;;;;;2.68;100.00;98289.97;5073801;28;20540;-80
2023/03/10 06:11:24;;;;;;;9.10;3.70;;;;;;;2.72;100.00;98280.25;5076794;28;20555;-80
2023/03/10 06:13:50;;;;;;;14.63;5.50;;;;;;;2.79;100.00;98279.81;5078966;28;20441;-79
2023/03/10 06:16:18;;;;;;;14.70;6.07;;;;;;;2.78;100.00;98279.00;5078705;28;20517;-79
2023/03/10 06:18:45;;;;;;;15.20;5.67;;;;;;;2.75;100.00;98274.31;5078799;28;20563;-80
2023/03/10 06:21:14;;;;;;;12.70;5.27;;;;;;;2.86;100.00;98277.50;5078515;28;20496;-80
2023/03/10 06:23:41;;;;;;;13.27;5.03;;;;;;;2.90;100.00;98272.31;5077936;28;20481;-80
2023/03/10 06:26:12;;;;;;;16.77;6.43;;;;;;;2.95;100.00;98275.66;5078063;28;20437;-80
2023/03/10 06:28:41;;;;;;;16.80;6.57;;;;;;;2.99;100.00;98273.16;5079003;28;20445;-81
2023/03/10 06:31:12;;;;;;;12.60;5.50;;;;;;;2.97;100.00;98265.44;5077810;28;20544;-81
2023/03/10 06:33:39;;;;;;;14.83;6.40;;;;;;;2.96;100.00;98268.41;5078131;28;20516;-80
2023/03/10 06:36:06;;;;;;;16.07;5.77;;;;;;;2.94;100.00;98262.59;5077535;28;20516;-80
2023/03/10 06:38:33;;;;;;;16.30;4.50;;;;;;;2.89;100.00;98257.38;5077303;28;20576;-81
2023/03/10 06:40:59;;;;;;;13.10;5.70;;;;;;;2.91;100.00;98260.53;5077358;28;20845;-81
2023/03/10 06:43:27;;;;;;;12.80;5.30;;;;;;;2.84;100.00;98254.84;5078113;28;20440;-80
2023/03/10 06:45:54;;;;;;;11.53;4.83;;;;;;;2.87;100.00;98262.22;5078178;28;20532;-80
2023/03/10 06:48:21;;;;;;;10.83;4.57;;;;;;;2.92;100.00;98256.75;5079081;28;20989;-80
2023/03/10 06:50:48;;;;;;;9.73;4.30;;;;;;;2.90;100.00;98253.63;5079005;28;20553;-81
2023/03/10 06:53:16;;;;;;;13.40;4.93;;;;;;;2.95;100.00;98264.16;5079151;28;20512;-81
2023/03/10 06:55:43;;;;;;;15.63;5.77;;;;;;;2.96;100.00;98257.72;5079402;28;21017;-81
2023/03/10 06:58:10;;;;;;;9.73;4.17;;;;;;;2.95;100.00;98256.94;5079151;28;20544;-82
2023/03/10 07:00:40;;;;;;;11.50;4.30;;;;;;;2.94;100.00;98255.34;5078607;28;20564;-82
2023/03/10 07:03:10;;;;;;;9.27;4.20;;;;;;;2.96;100.00;98252.38;5079686;28;20418;-82
2023/03/10 07:05:36;;;;;;;13.07;5.40;;;;;;;2.92;100.00;98260.25;5079404;28;20475;-78
2023/03/10 07:08:03;;;;;;;10.30;4.60;;;;;;;2.87;100.00;98254.22;5077542;28;20516;-79
2023/03/10 07:10:30;;;;;;;12.60;5.27;;;;;;;2.91;100.00;98255.19;5077297;28;20864;-79
2023/03/10 07:12:57;;;;;;;14.33;5.40;;;;;;;2.87;100.00;98243.53;5077689;28;21002;-78
2023/03/10 07:15:25;;;;;;;13.43;4.83;;;;;;;2.94;100.00;98254.56;5078975;28;20437;-79
2023/03/10 07:17:55;;;;;;;11.43;4.27;;;;;;;3.00;100.00;98258.69;5078009;28;20566;-78
2023/03/10 07:20:22;;;;;;;16.73;5.73;;;;;;;2.97;100.00;98252.06;5077444;28;20485;-79
2023/03/10 07:22:48;;;;;;;12.73;6.00;;;;;;;3.00;100.00;98253.31;5076887;28;21021;-78
2023/03/10 07:25:15;;;;;;;11.37;4.97;;;;;;;3.09;100.00;98256.81;5078354;28;20544;-79
2023/03/10 07:27:42;;;;;;;12.23;5.30;;;;;;;3.16;100.00;98265.19;5077391;28;20571;-80
2023/03/10 07:30:10;;;;;;;13.73;5.57;;;;;;;3.16;100.00;98259.84;5077414;28;20545;-78
2023/03/10 07:32:37;;;;;;;15.00;5.00;;;;;;;3.29;100.00;98255.50;5077282;28;20930;-77
2023/03/10 07:35:06;;;;;;;13.30;5.20;;;;;;;3.34;100.00;98259.91;5078309;28;21000;-79
2023/03/10 07:37:32;;;;;;;15.60;5.93;;;;;;;3.35;100.00;98262.25;5077608;28;20494;-78
2023/03/10 07:39:59;;;;;;;20.23;6.10;;;;;;;3.40;100.00;98259.44;5078179;28;20513;-79
2023/03/10 07:42:25;;;;;;;10.67;5.10;;;;;;;3.41;100.00;98270.94;5078403;28;20509;-78
2023/03/10 07:44:52;;;;;;;17.30;6.10;;;;;;;3.39;100.00;98259.75;5076030;28;20556;-78
2023/03/10 07:47:19;;;;;;;11.00;5.03;;;;;;;3.47;100.00;98250.97;5075473;28;20484;-82
2023/03/10 07:49:45;;;;;;;11.17;4.70;;;;;;;3.50;100.00;98250.34;5075827;28;20433;-78
2023/03/10 07:52:14;;;;;;;12.90;4.90;;;;;;;3.57;100.00;98249.88;5075571;28;20520;-77
2023/03/10 07:54:43;;;;;;;13.30;6.17;;;;;;;3.60;100.00;98260.75;5076222;28;20873;-78
2023/03/10 07:57:09;;;;;;;13.93;5.70;;;;;;;3.65;100.00;98265.97;5075856;28;20544;-78
2023/03/10 07:59:36;;;;;;;12.80;5.00;;;;;;;3.71;100.00;98262.03;5075362;28;20481;-77
2023/03/10 08:02:03;;;;;;;11.70;5.17;;;;;;;3.73;100.00;98246.44;5075846;28;20889;-77
2023/03/10 08:04:30;;;;;;;18.87;6.60;;;;;;;3.77;100.00;98252.75;5075851;28;20477;-78
2023/03/10 08:06:57;;;;;;;11.93;5.57;;;;;;;3.83;100.00;98247.25;5076302;28;20488;-78
2023/03/10 08:09:25;;;;;;;13.23;5.87;;;;;;;3.87;100.00;98248.97;5075670;28;20441;-79
2023/03/10 08:11:51;;;;;;;17.10;5.77;;;;;;;3.91;100.00;98246.47;5075460;28;20977;-78
2023/03/10 08:14:18;;;;;;;11.30;5.20;;;;;;;3.93;100.00;98241.56;5075487;28;20529;-78
2023/03/10 08:16:45;;;;;;;11.47;4.93;;;;;;;3.97;100.00;98240.63;5074910;28;20938;-79
2023/03/10 08:19:11;;;;;;;12.93;5.77;;;;;;;3.98;100.00;98241.41;5074710;28;20575;-78
2023/03/10 08:21:38;;;;;;;11.60;4.90;;;;;;;4.05;100.00;98247.88;5075341;28;20883;-78
2023/03/10 08:24:05;;;;;;;16.17;5.33;;;;;;;4.16;100.00;98242.19;5075434;28;20520;-78
2023/03/10 08:26:33;;;;;;;22.33;6.13;;;;;;;4.19;100.00;98250.38;5075654;28;20540;-78
2023/03/10 08:29:00;;;;;;;20.23;6.40;;;;;;;4.19;100.00;98255.75;5075554;28;20479;-78
2023/03/10 08:31:26;;;;;;;12.10;5.70;;;;;;;4.19;100.00;98253.06;5075245;28;20559;-78
2023/03/10 08:33:55;;;;;;;18.20;5.80;;;;;;;4.20;100.00;98246.59;5074563;28;20528;-78
2023/03/10 08:36:23;;;;;;;12.57;5.47;;;;;;;4.25;100.00;98254.50;5075011;28;20477;-79
2023/03/10 08:38:53;;;;;;;14.73;6.53;;;;;;;4.25;100.00;98265.22;5074981;28;20527;-79
2023/03/10 08:41:23;;;;;;;14.30;6.30;;;;;;;4.24;100.00;98258.25;5075519;28;20838;-79
2023/03/10 08:43:53;;;;;;;16.80;5.70;;;;;;;4.30;100.00;98266.94;5075527;28;20540;-78
2023/03/10 08:46:21;;;;;;;13.43;6.20;;;;;;;4.37;100.00;98277.94;5074988;28;20481;-78
2023/03/10 08:48:48;;;;;;;14.83;5.97;;;;;;;4.27;100.00;98278.28;5074956;28;20943;-78
2023/03/10 08:51:15;;;;;;;14.43;6.17;;;;;;;4.27;100.00;98281.75;5074811;28;20548;-78
2023/03/10 08:53:42;;;;;;;18.00;5.90;;;;;;;4.38;100.00;98281.41;5075064;28;20438;-78
2023/03/10 08:56:09;;;;;;;16.50;6.13;;;;;;;4.46;100.00;98275.28;5074840;28;20821;-79
2023/03/10 08:58:35;;;;;;;19.53;7.37;;;;;;;4.59;100.00;98282.34;5075057;28;20469;-78
2023/03/10 09:01:04;;;;;;;15.60;6.20;;;;;;;4.70;100.00;98280.91;5075098;28;20560;-78
2023/03/10 09:03:31;;;;;;;17.90;6.20;;;;;;;4.83;100.00;98273.78;5075008;28;20548;-79
2023/03/10 09:05:58;;;;;;;14.53;6.90;;;;;;;4.98;100.00;98280.53;5075007;28;20534;-79
2023/03/10 09:08:24;;;;;;;15.30;5.80;;;;;;;5.14;100.00;98284.25;5074967;28;20520;-79
2023/03/10 09:10:51;;;;;;;15.53;5.83;;;;;;;5.26;100.00;98276.28;5074696;28;21048;-78
2023/03/10 09:13:17;;;;;;;14.10;6.50;;;;;;;5.42;100.00;98289.19;5075730;28;20865;-78
2023/03/10 09:15:44;;;;;;;13.73;5.13;;;;;;;5.59;100.00;98282.94;5075872;28;20461;-77
2023/03/10 09:18:14;;;;;;;16.80;6.27;;;;;;;5.77;100.00;98295.16;5076947;28;20540;-80
2023/03/10 09:20:41;;;;;;;17.53;7.03;;;;;;;5.91;100.00;98292.22;5077152;28;20493;-79
2023/03/10 09:23:10;;;;;;;13.60;6.23;;;;;;;6.02;100.00;98291.53;5077291;28;20518;-79
2023/03/10 09:25:39;;;;;;;15.90;6.37;;;;;;;6.11;100.00;98299.53;5076994;28;20875;-79
2023/03/10 09:28:06;;;;;;;21.90;7.40;;;;;;;6.12;100.00;98300.31;5077484;28;20471;-79
2023/03/10 09:30:36;;;;;;;14.67;6.40;;;;;;;6.00;100.00;98314.47;5077688;28;20469;-79
2023/03/10 09:33:02;;;;;;;17.43;7.00;;;;;;;5.56;100.00;98309.31;5077703;28;20445;-79
2023/03/10 09:35:31;;;;;;;15.83;6.37;;;;;;;5.64;100.00;98309.59;5077758;28;20445;-79
2023/03/10 09:37:57;;;;;;;17.50;6.50;;;;;;;5.59;100.00;98313.25;5077762;28;20861;-79
2023/03/10 09:40:24;;;;;;;14.40;5.70;;;;;;;5.54;100.00;98314.25;5077181;28;20557;-79
2023/03/10 09:42:59;;;;;;;12.57;6.00;;;;;;;5.55;100.00;98315.03;5076666;28;20541;-79
2023/03/10 09:45:34;;;;;;;13.83;5.53;;;;;;;5.61;100.00;98313.72;5077357;28;20482;-78
2023/03/10 09:48:16;;;;;;;14.33;6.53;;;;;;;5.75;100.00;98322.31;5080119;28;21056;-78
2023/03/10 10:02:56;;;;;;;15.60;6.47;;;;;;;6.09;100.00;98330.53;5096343;22;20484;-68
2023/03/10 10:05:26;;;;;;;13.90;5.50;;;;;;;6.03;100.00;98329.94;5076324;28;20589;-69
2023/03/10 10:07:56;;;;;;;13.47;5.63;;;;;;;5.95;100.00;98342.31;5076330;28;20532;-69
2023/03/10 10:10:26;;;;;;;14.10;5.97;;;;;;;5.97;100.00;98345.44;5076662;28;20541;-68
2023/03/10 10:12:54;;;;;;;17.00;6.00;;;;;;;6.02;100.00;98342.59;5056729;28;20461;-69
2023/03/10 10:15:24;;;;;;;19.63;6.70;;;;;;;6.02;100.00;98349.84;5056427;28;20449;-69
2023/03/10 10:18:04;;;;;;;17.53;6.70;;;;;;;5.97;100.00;98348.13;5056173;28;20935;-68
2023/03/10 10:20:35;;;;;;;14.97;4.90;;;;;;;6.00;100.00;98341.34;5056413;28;20468;-69
2023/03/10 10:23:05;;;;;;;16.67;6.30;;;;;;;6.13;100.00;98356.44;5056083;28;20962;-68
2023/03/10 10:25:32;;;;;;;14.67;4.37;;;;;;;6.17;100.00;98351.19;5056411;28;20509;-67
2023/03/10 10:28:01;;;;;;;13.90;5.10;;;;;;;6.22;100.00;98346.41;5056426;28;20442;-69
2023/03/10 10:30:34;;;;;;;14.30;5.20;;;;;;;6.32;100.00;98354.06;5056222;28;20533;-68
2023/03/10 10:33:04;;;;;;;12.50;5.70;;;;;;;6.38;100.00;98359.28;5056259;28;20422;-68
2023/03/10 10:35:34;;;;;;;14.30;5.87;;;;;;;6.33;100.00;98357.56;5055981;28;20457;-69
2023/03/10 10:38:05;;;;;;;12.47;5.77;;;;;;;6.41;100.00;98356.69;5056077;28;20442;-69
2023/03/10 10:40:34;;;;;;;9.23;4.43;;;;;;;6.64;100.00;98359.03;5055917;28;20474;-69
2023/03/10 10:43:04;;;;;;;14.73;5.67;;;;;;;6.81;100.00;98362.38;5056030;28;20818;-67
2023/03/10 10:45:35;;;;;;;11.83;5.03;;;;;;;6.95;100.00;98359.41;5056361;28;20442;-68
2023/03/10 10:48:02;;;;;;;11.83;5.57;;;;;;;7.05;100.00;98364.38;5055859;28;20434;-69
2023/03/10 10:50:30;;;;;;;17.30;5.70;;;;;;;7.13;100.00;98361.91;5055432;28;20891;-69
2023/03/10 10:53:20;;;;;;;13.73;5.83;;;;;;;7.45;100.00;98363.78;5055796;28;20465;-69
2023/03/10 10:55:59;;;;;;;12.67;4.83;;;;;;;7.73;100.00;98368.50;5055902;28;20423;-69
2023/03/10 10:58:29;;;;;;;24.43;6.47;;;;;;;7.91;100.00;98377.16;5055790;28;20499;-69
2023/03/10 11:00:58;;;;;;;13.30;5.10;;;;;;;8.00;100.00;98375.13;5055431;28;20486;-68
2023/03/10 11:03:28;;;;;;;10.83;5.20;;;;;;;7.87;100.00;98376.25;5055752;28;20848;-69
2023/03/10 11:05:55;;;;;;;14.10;5.60;;;;;;;7.87;100.00;98379.72;5055489;28;20474;-68
2023/03/10 11:08:33;;;;;;;11.23;4.47;;;;;;;7.81;100.00;98373.78;5055201;28;20962;-69
2023/03/10 11:11:15;;;;;;;11.47;5.73;;;;;;;7.74;100.00;98380.84;5055290;28;20462;-69
2023/03/10 11:13:58;;;;;;;11.43;5.03;;;;;;;7.69;100.00;98370.31;5055317;28;20452;-69
2023/03/10 11:16:31;;;;;;;13.13;5.40;;;;;;;7.71;100.00;98368.84;5054906;28;20854;-69
2023/03/10 11:19:05;;;;;;;13.47;5.40;;;;;;;7.75;100.00;98372.44;5055145;28;20419;-69
2023/03/10 11:21:36;;;;;;;13.20;5.30;;;;;;;7.78;100.00;98366.38;5055012;28;20510;-69
2023/03/10 11:24:11;;;;;;;11.83;5.03;;;;;;;7.76;100.00;98371.31;5054726;28;20429;-69
2023/03/10 11:26:48;;;;;;;11.80;6.00;;;;;;;7.83;100.00;98362.66;5054924;28;20919;-74
2023/03/10 11:29:27;;;;;;;12.23;5.27;;;;;;;7.89;100.00;98365.94;5055057;28;20975;-74
2023/03/10 11:32:02;;;;;;;10.47;4.70;;;;;;;7.76;100.00;98370.53;5054758;28;21042;-70
2023/03/10 11:34:31;;;;;;;13.33;4.43;;;;;;;7.75;100.00;98385.13;5054816;28;20522;-69
2023/03/10 11:37:07;;;;;;;11.53;4.83;;;;;;;7.83;100.00;98379.66;5054673;28;20961;-69
2023/03/10 11:39:44;;;;;;;9.67;3.87;;;;;;;7.86;100.00;98380.84;5054733;28;20500;-68
2023/03/10 11:42:20;;;;;;;10.50;4.60;;;;;;;7.88;100.00;98373.25;5054645;28;20468;-69